ADDS METAR Data INFO
IDs: Format: Raw Decoded Include TAF

Data at: 1506 UTC 11 Dec 2017

KAEX 111453Z 30003KT 10SM CLR 08/03 A3026 RMK AO2 SLP253 T00830033 50002
KAEX 111353Z 00000KT 10SM CLR 03/01 A3027 RMK AO2 SLP254 T00280011
KAEX 111253Z 00000KT 10SM CLR 01/M01 A3026 RMK AO2 SLP252 T00061006
KAEX 111153Z 00000KT 10SM CLR 01/00 A3026 RMK AO2 SLP251 T00110000 10039 20011 58005
KAEX 111053Z 00000KT 10SM CLR 01/00 A3026 RMK AO2 SLP251 T00110000
KAEX 110953Z 00000KT 10SM CLR 02/01 A3028 RMK AO2 SLP257 T00220006
KAEX 110853Z 34003KT 10SM CLR 02/01 A3027 RMK AO2 SLP255 T00170006 58009
KAEX 110753Z 00000KT 10SM CLR 02/01 A3028 RMK AO2 SLP260 T00170006
KAEX 110653Z 00000KT 10SM CLR 02/01 A3029 RMK AO2 SLP262 T00220006
KAEX 110553Z 14003KT 10SM CLR 04/01 A3030 RMK AO2 SLP265 T00390006 10106 20028 401611028 58005
KAEX 110453Z 12004KT 10SM CLR 04/01 A3031 RMK AO2 SLP267 T00440011
KAEX 110353Z 00000KT 10SM CLR 05/02 A3032 RMK AO2 SLP270 T00500017
KAEX 110253Z 00000KT 10SM CLR 07/03 A3031 RMK AO2 SLP270 T00670028 58001
KAEX 110153Z 22004KT 10SM CLR 07/03 A3032 RMK AO2 SLP274 T00670033
KAEX 110053Z 00000KT 10SM CLR 11/02 A3031 RMK AO2 SLP270 T01060022
KAEX 102353Z 00000KT 10SM CLR 10/03 A3032 RMK AO2 SLP271 T01000033 10161 20100 53001
KAEX 102253Z 23005KT 10SM CLR 13/04 A3031 RMK AO2 SLP268 T01330039
KAEX 102153Z 23005KT 10SM CLR 16/01 A3031 RMK AO2 SLP268 T01560011
KAEX 102053Z 30008KT 10SM CLR 16/M01 A3031 RMK AO2 SLP270 T01611011 56023
KAEX 101953Z 26007KT 10SM CLR 15/M01 A3033 RMK AO2 SLP275 T01501011
KAEX 101853Z 00000KT 10SM CLR 14/M01 A3035 RMK AO2 SLP281 T01391011
KAEX 101753Z 33003KT 10SM CLR 13/01 A3038 RMK AO2 SLP293 60000 T01280006 10128 21022 58010
KAEX 101653Z AUTO 19003KT 10SM CLR 10/01 A3041 RMK AO2 SLP302 T01000011
KAEX 101553Z 00000KT 10SM CLR 07/02 A3042 RMK AO2 SLP305 T00670022
KAEX 101453Z 28003KT 10SM CLR 03/01 A3041 RMK AO2 SLP303 60000 T00330011 53017
KAEX 101353Z 00000KT 8SM CLR M01/M01 A3039 RMK AO2 SLP297 T10061006
KAEX 101253Z 00000KT 10SM CLR M02/M02 A3038 RMK AO2 SNE1157 SLP292 P0000 T10171022
KAEX 101153Z 00000KT 9SM -SN CLR M02/M02 A3036 RMK AO2 SNB48 SLP287 P0000 60000 I1001 I6001 T10171022 10017 21028 53005
KAEX 101053Z 00000KT 10SM CLR M01/M02 A3034 RMK AO2 SLP279 T10061017
KAEX 100953Z 00000KT 10SM CLR M01/M01 A3035 RMK AO2 SLP281 T10061011
KAEX 100853Z 32003KT 10SM CLR 01/M01 A3035 RMK AO2 SNB11E28 SLP281 P0000 60000 T00061006 51012
KAEX 100753Z 27003KT 10SM CLR 01/00 A3034 RMK AO2 SNE16 SLP278 P0000 T00110000
KAEX 100653Z 32003KT 9SM -SN CLR 01/00 A3033 RMK AO2 SNB06E21B39 SLP274 P0000 T00110000
KAEX 100553Z 34004KT 10SM CLR 02/00 A3031 RMK AO2 SLP269 T00170000 10078 20006 401331039 51015
KAEX 100453Z 00000KT 10SM CLR 02/00 A3030 RMK AO2 SLP266 T00170000
KAEX 100353Z 00000KT 10SM CLR 03/01 A3029 RMK AO2 SLP260 T00280006